Christina G — ZCXO5 — position and weather

sailwx.info

Track history (hours):
 
Tides and Currents Weather Stations Pressure Air Temp Water Temp Dewpoint Dewpoint Depression Visibility Wind Speed Wind Dir Waves Ship Positions

Christina G

Last reported at 2016-May-23 08:05 UTC. Time now 2016-May-25 11:04 UTC.
Position N 39°02' E 001°38'.

Length 33 m; draft 2.5 m.

MMSI: 319032100.

Date/timePositionNaut miles runAvg speedWind from/ knotsBaromVisibWave heightAir tempDewpointWater temp
2016-May-23 08:05N 39°02' E 001°38'3 0.4
2016-May-23 00:20N 39°04' E 001°36'0 0.0
2016-May-22 19:08N 39°04' E 001°36'1 1.3
2016-May-22 18:27N 39°05' E 001°36'0 0.1
2016-May-22 17:33N 39°05' E 001°36'8 3.9
2016-May-22 15:27N 39°06' E 001°26'910.1
2016-May-22 14:31N 39°11' E 001°36'1111.0
2016-May-22 13:28N 39°15' E 001°50'1011.1
2016-May-22 12:33N 39°19' E 002°02'1111.0
2016-May-22 11:33N 39°22' E 002°15'1010.4
2016-May-22 10:33N 39°26' E 002°28'7 6.7
2016-May-22 09:33N 39°30' E 002°35'5 4.8
2016-May-22 08:32N 39°34' E 002°38'0 0.0
2016-May-22 07:32N 39°34' E 002°38'  
Track history (hours):
 
Tides and Currents Weather Stations Pressure Air Temp Water Temp Dewpoint Dewpoint Depression Visibility Wind Speed Wind Dir Waves Ship Positions

Christina G

Last reported at 2016-May-23 08:05 UTC. Time now 2016-May-25 11:04 UTC.
Position N 39°02' E 001°38'.

Length 33 m; draft 2.5 m.

MMSI: 319032100.

Date/timePositionNaut miles runAvg speedWind from/ knotsBaromVisibWave heightAir tempDewpointWater temp
2016-May-23 08:05N 39°02' E 001°38'3 0.4
2016-May-23 00:20N 39°04' E 001°36'0 0.0
2016-May-22 19:08N 39°04' E 001°36'1 1.3
2016-May-22 18:27N 39°05' E 001°36'0 0.1
2016-May-22 17:33N 39°05' E 001°36'8 3.9
2016-May-22 15:27N 39°06' E 001°26'910.1
2016-May-22 14:31N 39°11' E 001°36'1111.0
2016-May-22 13:28N 39°15' E 001°50'1011.1
2016-May-22 12:33N 39°19' E 002°02'1111.0
2016-May-22 11:33N 39°22' E 002°15'1010.4
2016-May-22 10:33N 39°26' E 002°28'7 6.7
2016-May-22 09:33N 39°30' E 002°35'5 4.8
2016-May-22 08:32N 39°34' E 002°38'0 0.0
2016-May-22 07:32N 39°34' E 002°38'  

Dump ship's entire track history